Time;durP1;ratioP1;P1;durP2;ratioP2;P2;SDS_P1;SDS_P2;PMS_P1;PMS_P2;Temp;Humidity;BMP_temperature;BMP_pressure;BME280_temperature;BME280_humidity;BME280_pressure;Samples;Min_cycle;Max_cycle;Signal;HPM_P1;HPM_P2
2022/10/18 00:00:19;;;;;;;;;;;;;;;;;;2106523;28;19927;-45
2022/10/18 00:01:20;;;;;;;;;;;;;;;;;;2106441;28;19927;-45
2022/10/18 00:02:21;;;;;;;;;;;;;;;;;;2106475;28;20019;-45
2022/10/18 00:03:21;;;;;;;;;;;;;;;;;;2106617;28;19975;-46
2022/10/18 00:04:22;;;;;;;;;;;;;;;;;;2106475;28;20308;-45
2022/10/18 00:05:23;;;;;;;;;;;;;;;;;;2106451;28;20368;-45
2022/10/18 00:06:24;;;;;;;;;;;;;;;;;;2106652;28;19920;-46
2022/10/18 00:07:25;;;;;;;;;;;;;;;;;;2106470;28;20331;-46
2022/10/18 00:08:25;;;;;;;;;;;;;;;;;;2106699;28;20324;-45
2022/10/18 00:09:26;;;;;;;;;;;;;;;;;;2106487;28;19920;-45
2022/10/18 00:10:27;;;;;;;;;;;;;;;;;;2099455;28;19920;-45
2022/10/18 00:11:28;;;;;;;;;;;;;;;;;;2098172;28;19920;-46
2022/10/18 00:12:29;;;;;;;;;;;;;;;;;;2098082;28;19975;-46
2022/10/18 00:13:29;;;;;;;;;;;;;;;;;;2098005;28;19942;-45
2022/10/18 00:14:30;;;;;;;;;;;;;;;;;;2106356;28;19928;-45
2022/10/18 00:15:31;;;;;;;;;;;;;;;;;;2106541;28;19927;-45
2022/10/18 00:16:32;;;;;;;;;;;;;;;;;;2106423;28;19923;-46
2022/10/18 00:17:33;;;;;;;;;;;;;;;;;;2106541;28;19920;-45
2022/10/18 00:18:34;;;;;;;;;;;;;;;;;;2106574;28;20012;-45
2022/10/18 00:19:34;;;;;;;;;;;;;;;;;;2106344;28;19972;-45
2022/10/18 00:20:35;;;;;;;;;;;;;;;;;;2106529;28;19919;-45
2022/10/18 00:21:36;;;;;;;;;;;;;;;;;;2106325;28;20338;-46
2022/10/18 00:22:37;;;;;;;;;;;;;;;;;;2106439;28;20361;-45
2022/10/18 00:23:38;;;;;;;;;;;;;;;;;;2106344;28;19927;-45
2022/10/18 00:24:39;;;;;;;;;;;;;;;;;;2106515;28;19920;-45
2022/10/18 00:25:39;;;;;;;;;;;;;;;;;;2106505;28;20331;-45
2022/10/18 00:26:40;;;;;;;;;;;;;;;;;;2106434;28;20279;-45
2022/10/18 00:27:41;;;;;;;;;;;;;;;;;;2106483;28;19973;-46
2022/10/18 00:28:42;;;;;;;;;;;;;;;;;;2106391;28;20018;-45
2022/10/18 00:29:42;;;;;;;;;;;;;;;;;;2106361;28;20428;-45
2022/10/18 00:30:43;;;;;;;;;;;;;;;;;;2106371;28;19960;-45
2022/10/18 00:31:44;;;;;;;;;;;;;;;;;;2106431;28;20365;-45
2022/10/18 00:32:45;;;;;;;;;;;;;;;;;;2106337;28;20243;-45
2022/10/18 00:33:46;;;;;;;;;;;;;;;;;;2106456;28;19920;-47
2022/10/18 00:34:47;;;;;;;;;;;;;;;;;;2106287;28;20319;-46
2022/10/18 00:35:47;;;;;;;;;;;;;;;;;;2106331;28;19919;-45
2022/10/18 00:36:48;;;;;;;;;;;;;;;;;;2106376;28;19969;-46
2022/10/18 00:37:49;;;;;;;;;;;;;;;;;;2106278;28;20337;-46
2022/10/18 00:38:50;;;;;;;;;;;;;;;;;;2106288;28;20022;-45
2022/10/18 00:39:51;;;;;;;;;;;;;;;;;;2106290;28;19920;-45
2022/10/18 00:40:52;;;;;;;;;;;;;;;;;;2106443;28;19924;-46
2022/10/18 00:41:53;;;;;;;;;;;;;;;;;;2106145;28;19963;-45
2022/10/18 00:42:54;;;;;;;;;;;;;;;;;;2106390;28;19920;-45
2022/10/18 00:43:55;;;;;;;;;;;;;;;;;;2106309;28;19982;-46
2022/10/18 00:44:56;;;;;;;;;;;;;;;;;;2106365;28;19919;-45
2022/10/18 00:45:57;;;;;;;;;;;;;;;;;;2106321;28;19927;-45
2022/10/18 00:46:57;;;;;;;;;;;;;;;;;;2106298;28;20254;-45
2022/10/18 00:47:58;;;;;;;;;;;;;;;;;;2106211;28;20284;-46
2022/10/18 00:48:59;;;;;;;;;;;;;;;;;;2106250;28;19920;-45
2022/10/18 00:50:00;;;;;;;;;;;;;;;;;;2106403;28;19920;-45
2022/10/18 00:51:01;;;;;;;;;;;;;;;;;;2106200;28;19970;-45
2022/10/18 00:52:01;;;;;;;;;;;;;;;;;;2106160;28;19924;-45
2022/10/18 00:53:02;;;;;;;;;;;;;;;;;;2106209;28;19931;-45
2022/10/18 00:54:03;;;;;;;;;;;;;;;;;;2106183;28;19924;-46
2022/10/18 00:55:04;;;;;;;;;;;;;;;;;;2106139;28;20368;-45
2022/10/18 00:56:05;;;;;;;;;;;;;;;;;;2106215;28;19927;-45
2022/10/18 00:57:06;;;;;;;;;;;;;;;;;;2106203;28;20008;-45
2022/10/18 00:58:06;;;;;;;;;;;;;;;;;;2107168;28;19920;-45
2022/10/18 00:59:07;;;;;;;;;;;;;;;;;;2107803;28;19927;-45
2022/10/18 01:00:08;;;;;;;;;;;;;;;;;;2107702;28;20326;-45
2022/10/18 01:01:09;;;;;;;;;;;;;;;;;;2107686;28;20373;-45
2022/10/18 01:02:10;;;;;;;;;;;;;;;;;;2107482;28;20369;-44
2022/10/18 01:03:11;;;;;;;;;;;;;;;;;;2107690;28;19920;-45
2022/10/18 01:04:12;;;;;;;;;;;;;;;;;;2107576;28;19924;-46
2022/10/18 01:05:13;;;;;;;;;;;;;;;;;;2107822;28;19926;-46
2022/10/18 01:06:13;;;;;;;;;;;;;;;;;;2107696;28;19943;-45
2022/10/18 01:07:14;;;;;;;;;;;;;;;;;;2107565;28;20089;-45
2022/10/18 01:08:15;;;;;;;;;;;;;;;;;;2107844;28;19927;-45
2022/10/18 01:09:16;;;;;;;;;;;;;;;;;;2107637;28;20007;-45
2022/10/18 01:10:17;;;;;;;;;;;;;;;;;;2105341;28;19920;-45
2022/10/18 01:11:18;;;;;;;;;;;;;;;;;;2107619;28;19920;-45
2022/10/18 01:12:19;;;;;;;;;;;;;;;;;;2107747;28;20434;-45
2022/10/18 01:13:20;;;;;;;;;;;;;;;;;;2107621;28;20373;-45
2022/10/18 01:14:23;;;;;;;;;;;;;;;;;;2107692;28;19919;-45
2022/10/18 01:15:24;;;;;;;;;;;;;;;;;;2107542;28;19968;-45
2022/10/18 01:16:25;;;;;;;;;;;;;;;;;;2107548;28;20383;-45
2022/10/18 01:17:26;;;;;;;;;;;;;;;;;;2107531;28;19966;-44
2022/10/18 01:18:26;;;;;;;;;;;;;;;;;;2107706;28;20266;-45
2022/10/18 01:19:27;;;;;;;;;;;;;;;;;;2107508;28;20276;-45
2022/10/18 01:20:28;;;;;;;;;;;;;;;;;;2107718;28;19920;-45
2022/10/18 01:21:29;;;;;;;;;;;;;;;;;;2107609;28;20393;-45
2022/10/18 01:22:30;;;;;;;;;;;;;;;;;;2107436;28;20027;-45
2022/10/18 01:23:31;;;;;;;;;;;;;;;;;;2107673;28;19923;-45
2022/10/18 01:24:31;;;;;;;;;;;;;;;;;;2107486;28;19920;-45
2022/10/18 01:25:32;;;;;;;;;;;;;;;;;;2107517;28;19931;-45
2022/10/18 01:26:33;;;;;;;;;;;;;;;;;;2107435;28;19939;-46
2022/10/18 01:27:34;;;;;;;;;;;;;;;;;;2107481;28;19971;-45
2022/10/18 01:28:34;;;;;;;;;;;;;;;;;;2107583;28;20004;-45
2022/10/18 01:29:35;;;;;;;;;;;;;;;;;;2107611;28;20280;-45
2022/10/18 01:30:36;;;;;;;;;;;;;;;;;;2107651;28;20336;-45
2022/10/18 01:31:37;;;;;;;;;;;;;;;;;;2107365;28;19978;-46
2022/10/18 01:32:38;;;;;;;;;;;;;;;;;;2107503;28;19924;-45
2022/10/18 01:33:39;;;;;;;;;;;;;;;;;;2107493;28;19927;-46
2022/10/18 01:34:39;;;;;;;;;;;;;;;;;;2107584;28;19982;-46
2022/10/18 01:35:40;;;;;;;;;;;;;;;;;;2107446;28;20281;-46
2022/10/18 01:36:41;;;;;;;;;;;;;;;;;;2107390;28;19927;-45
2022/10/18 01:37:42;;;;;;;;;;;;;;;;;;2107484;28;19966;-45
2022/10/18 01:38:42;;;;;;;;;;;;;;;;;;2107557;28;19959;-45
2022/10/18 01:39:43;;;;;;;;;;;;;;;;;;2107426;28;20294;-45
2022/10/18 01:40:44;;;;;;;;;;;;;;;;;;2107444;28;19999;-45
2022/10/18 01:41:45;;;;;;;;;;;;;;;;;;2107503;28;19959;-44
2022/10/18 01:42:46;;;;;;;;;;;;;;;;;;2107364;28;19927;-44
2022/10/18 01:43:47;;;;;;;;;;;;;;;;;;2107450;28;20018;-44
2022/10/18 01:44:47;;;;;;;;;;;;;;;;;;2107379;28;20392;-45
2022/10/18 01:45:48;;;;;;;;;;;;;;;;;;2107532;28;19923;-45
2022/10/18 01:46:49;;;;;;;;;;;;;;;;;;2107336;28;19943;-45
2022/10/18 01:47:50;;;;;;;;;;;;;;;;;;2107499;28;20369;-45
2022/10/18 01:48:51;;;;;;;;;;;;;;;;;;2107354;28;20045;-45
2022/10/18 01:49:51;;;;;;;;;;;;;;;;;;2107334;28;19955;-45
2022/10/18 01:50:52;;;;;;;;;;;;;;;;;;2107515;28;19924;-45
2022/10/18 01:51:53;;;;;;;;;;;;;;;;;;2107494;28;19920;-45
2022/10/18 01:52:54;;;;;;;;;;;;;;;;;;2107451;28;19927;-45
2022/10/18 01:53:55;;;;;;;;;;;;;;;;;;2107277;28;19920;-45
2022/10/18 01:54:56;;;;;;;;;;;;;;;;;;2107375;28;19927;-45
2022/10/18 01:55:56;;;;;;;;;;;;;;;;;;2107326;28;19924;-44
2022/10/18 01:56:57;;;;;;;;;;;;;;;;;;2107339;28;19920;-45
2022/10/18 01:57:58;;;;;;;;;;;;;;;;;;2107350;28;19972;-45
2022/10/18 01:58:59;;;;;;;;;;;;;;;;;;2107432;28;19943;-44
2022/10/18 02:00:00;;;;;;;;;;;;;;;;;;2107340;28;19920;-45
2022/10/18 02:01:01;;;;;;;;;;;;;;;;;;2107449;28;19920;-45
2022/10/18 02:02:02;;;;;;;;;;;;;;;;;;2107230;28;19924;-45
2022/10/18 02:03:02;;;;;;;;;;;;;;;;;;2107135;28;19924;-45
2022/10/18 02:04:03;;;;;;;;;;;;;;;;;;2107245;28;20471;-45
2022/10/18 02:05:04;;;;;;;;;;;;;;;;;;2107186;28;19977;-45
2022/10/18 02:06:05;;;;;;;;;;;;;;;;;;2107229;28;19927;-44
2022/10/18 02:07:05;;;;;;;;;;;;;;;;;;2107070;28;20313;-45
2022/10/18 02:08:06;;;;;;;;;;;;;;;;;;2107317;28;20458;-45
2022/10/18 02:09:22;;;;;;;;;;;;;;;;;;2106622;28;20011;-45
2022/10/18 02:10:23;;;;;;;;;;;;;;;;;;2100829;28;19952;-45
2022/10/18 02:11:24;;;;;;;;;;;;;;;;;;2098870;28;20011;-45
2022/10/18 02:12:25;;;;;;;;;;;;;;;;;;2098891;28;19920;-45
2022/10/18 02:13:25;;;;;;;;;;;;;;;;;;2099027;28;20288;-46
2022/10/18 02:14:26;;;;;;;;;;;;;;;;;;2098831;28;20399;-45
2022/10/18 02:15:27;;;;;;;;;;;;;;;;;;2098842;28;19928;-45
2022/10/18 02:16:28;;;;;;;;;;;;;;;;;;2098824;28;19920;-45
2022/10/18 02:17:29;;;;;;;;;;;;;;;;;;2099005;28;19967;-46
2022/10/18 02:18:30;;;;;;;;;;;;;;;;;;2098834;28;20400;-45
2022/10/18 02:19:30;;;;;;;;;;;;;;;;;;2098797;28;19928;-45
2022/10/18 02:20:31;;;;;;;;;;;;;;;;;;2098862;28;19966;-45
2022/10/18 02:21:32;;;;;;;;;;;;;;;;;;2098774;28;20328;-45
2022/10/18 02:22:33;;;;;;;;;;;;;;;;;;2098803;28;19931;-45
2022/10/18 02:23:34;;;;;;;;;;;;;;;;;;2098793;28;19966;-45
2022/10/18 02:24:35;;;;;;;;;;;;;;;;;;2098753;28;20007;-45
2022/10/18 02:25:35;;;;;;;;;;;;;;;;;;2098702;28;19927;-45
2022/10/18 02:26:36;;;;;;;;;;;;;;;;;;2098874;28;19921;-44
2022/10/18 02:27:37;;;;;;;;;;;;;;;;;;2098751;28;19962;-45
2022/10/18 02:28:38;;;;;;;;;;;;;;;;;;2098844;28;19920;-45
2022/10/18 02:29:39;;;;;;;;;;;;;;;;;;2098778;28;19921;-45
2022/10/18 02:30:40;;;;;;;;;;;;;;;;;;2098757;28;20006;-45
2022/10/18 02:31:41;;;;;;;;;;;;;;;;;;2098722;28;19920;-44
2022/10/18 02:32:41;;;;;;;;;;;;;;;;;;2098744;28;20281;-46
2022/10/18 02:33:42;;;;;;;;;;;;;;;;;;2098874;28;19931;-44
2022/10/18 02:34:43;;;;;;;;;;;;;;;;;;2098851;28;19920;-45
2022/10/18 02:35:44;;;;;;;;;;;;;;;;;;2098723;28;19927;-45
2022/10/18 02:36:45;;;;;;;;;;;;;;;;;;2098692;28;19920;-45
2022/10/18 02:37:46;;;;;;;;;;;;;;;;;;2098671;28;19959;-44
2022/10/18 02:38:46;;;;;;;;;;;;;;;;;;2098731;28;19920;-44
2022/10/18 02:39:47;;;;;;;;;;;;;;;;;;2098673;28;19920;-45
2022/10/18 02:40:48;;;;;;;;;;;;;;;;;;2098762;28;19928;-45
2022/10/18 02:41:49;;;;;;;;;;;;;;;;;;2098733;28;19924;-45
2022/10/18 02:42:49;;;;;;;;;;;;;;;;;;2098654;28;20329;-45
2022/10/18 02:43:50;;;;;;;;;;;;;;;;;;2098795;28;20387;-45
2022/10/18 02:44:51;;;;;;;;;;;;;;;;;;2098823;28;19920;-45
2022/10/18 02:45:52;;;;;;;;;;;;;;;;;;2098614;28;19960;-45
2022/10/18 02:46:53;;;;;;;;;;;;;;;;;;2098654;28;19964;-45
2022/10/18 02:47:53;;;;;;;;;;;;;;;;;;2098643;28;20315;-44
2022/10/18 02:48:54;;;;;;;;;;;;;;;;;;2098792;28;19920;-45
2022/10/18 02:49:55;;;;;;;;;;;;;;;;;;2098572;28;20015;-44
2022/10/18 02:50:56;;;;;;;;;;;;;;;;;;2098601;28;19920;-45
2022/10/18 02:51:57;;;;;;;;;;;;;;;;;;2098613;28;19932;-45
2022/10/18 02:52:57;;;;;;;;;;;;;;;;;;2098715;28;19927;-45
2022/10/18 02:53:58;;;;;;;;;;;;;;;;;;2098687;28;19969;-45
2022/10/18 02:55:00;;;;;;;;;;;;;;;;;;2098710;28;19921;-45
2022/10/18 02:56:02;;;;;;;;;;;;;;;;;;2098641;28;19920;-44
2022/10/18 02:57:02;;;;;;;;;;;;;;;;;;2098684;28;19977;-44
2022/10/18 02:58:03;;;;;;;;;;;;;;;;;;2098522;28;20025;-45
2022/10/18 02:59:06;;;;;;;;;;;;;;;;;;2098570;28;20011;-45
2022/10/18 03:00:07;;;;;;;;;;;;;;;;;;2098516;28;19920;-45
2022/10/18 03:01:07;;;;;;;;;;;;;;;;;;2098507;28;19953;-44
2022/10/18 03:02:08;;;;;;;;;;;;;;;;;;2098430;28;19920;-45
2022/10/18 03:03:09;;;;;;;;;;;;;;;;;;2104904;28;20419;-45
2022/10/18 03:04:10;;;;;;;;;;;;;;;;;;2107027;28;20258;-45
2022/10/18 03:05:11;;;;;;;;;;;;;;;;;;2106926;28;20281;-45
2022/10/18 03:06:12;;;;;;;;;;;;;;;;;;2106837;28;20017;-45
2022/10/18 03:07:12;;;;;;;;;;;;;;;;;;2106797;28;19924;-44
2022/10/18 03:08:13;;;;;;;;;;;;;;;;;;2106856;28;19955;-45
2022/10/18 03:09:14;;;;;;;;;;;;;;;;;;2106846;28;20345;-45
2022/10/18 03:10:15;;;;;;;;;;;;;;;;;;2101626;28;20369;-45
2022/10/18 03:11:15;;;;;;;;;;;;;;;;;;2098613;28;19920;-45
2022/10/18 03:12:16;;;;;;;;;;;;;;;;;;2098492;28;19920;-45
2022/10/18 03:13:17;;;;;;;;;;;;;;;;;;2098579;28;20285;-45
2022/10/18 03:14:18;;;;;;;;;;;;;;;;;;2098552;28;19982;-45
2022/10/18 03:15:19;;;;;;;;;;;;;;;;;;2098635;28;19943;-45
2022/10/18 03:16:20;;;;;;;;;;;;;;;;;;2098596;28;20385;-45
2022/10/18 03:17:20;;;;;;;;;;;;;;;;;;2098336;28;19920;-45
2022/10/18 03:18:21;;;;;;;;;;;;;;;;;;2098412;28;19920;-45
2022/10/18 03:19:22;;;;;;;;;;;;;;;;;;2098383;28;19943;-45
2022/10/18 03:20:23;;;;;;;;;;;;;;;;;;2098524;28;20379;-45
2022/10/18 03:21:23;;;;;;;;;;;;;;;;;;2098458;28;19975;-45
2022/10/18 03:22:26;;;;;;;;;;;;;;;;;;2098488;28;19920;-45
2022/10/18 03:23:32;;;;;;;;;;;;;;;;;;2098503;28;19966;-45
2022/10/18 03:24:33;;;;;;;;;;;;;;;;;;2098518;28;20406;-44
2022/10/18 03:25:33;;;;;;;;;;;;;;;;;;2098318;28;19971;-45
2022/10/18 03:26:34;;;;;;;;;;;;;;;;;;2098327;28;19971;-45
2022/10/18 03:27:35;;;;;;;;;;;;;;;;;;2098508;28;19927;-45
2022/10/18 03:28:36;;;;;;;;;;;;;;;;;;2098294;28;19981;-45
2022/10/18 03:29:37;;;;;;;;;;;;;;;;;;2098479;28;20317;-44
2022/10/18 03:30:38;;;;;;;;;;;;;;;;;;2098320;28;19920;-45
2022/10/18 03:31:39;;;;;;;;;;;;;;;;;;2098261;28;20045;-45
2022/10/18 03:32:39;;;;;;;;;;;;;;;;;;2098403;28;19955;-45
2022/10/18 03:33:40;;;;;;;;;;;;;;;;;;2098522;28;20384;-45
2022/10/18 03:34:41;;;;;;;;;;;;;;;;;;2098390;28;19978;-45
2022/10/18 03:35:42;;;;;;;;;;;;;;;;;;2098311;28;20058;-45
2022/10/18 03:36:43;;;;;;;;;;;;;;;;;;2098395;28;19960;-45
2022/10/18 03:37:43;;;;;;;;;;;;;;;;;;2098444;28;20365;-45
2022/10/18 03:38:44;;;;;;;;;;;;;;;;;;2098281;28;20010;-45
2022/10/18 03:39:45;;;;;;;;;;;;;;;;;;2098268;28;19970;-44
2022/10/18 03:40:46;;;;;;;;;;;;;;;;;;2098293;28;19920;-45
2022/10/18 03:41:47;;;;;;;;;;;;;;;;;;2098220;28;19920;-45
2022/10/18 03:42:48;;;;;;;;;;;;;;;;;;2098396;28;19966;-45
2022/10/18 03:43:48;;;;;;;;;;;;;;;;;;2098241;28;19951;-45
2022/10/18 03:44:49;;;;;;;;;;;;;;;;;;2098238;28;19939;-45
2022/10/18 03:45:50;;;;;;;;;;;;;;;;;;2098222;28;19924;-44
2022/10/18 03:46:51;;;;;;;;;;;;;;;;;;2098299;28;19924;-45
2022/10/18 03:47:51;;;;;;;;;;;;;;;;;;2098245;28;20366;-44
2022/10/18 03:48:52;;;;;;;;;;;;;;;;;;2098209;28;19956;-45
2022/10/18 03:49:53;;;;;;;;;;;;;;;;;;2098216;28;20377;-45
2022/10/18 03:50:57;;;;;;;;;;;;;;;;;;2098174;28;19990;-45
2022/10/18 03:51:58;;;;;;;;;;;;;;;;;;2098324;28;19920;-45
2022/10/18 03:52:59;;;;;;;;;;;;;;;;;;2098261;28;19928;-45
2022/10/18 03:53:59;;;;;;;;;;;;;;;;;;2098392;28;19921;-44
2022/10/18 03:55:00;;;;;;;;;;;;;;;;;;2098213;28;20395;-45
2022/10/18 03:56:01;;;;;;;;;;;;;;;;;;2098354;28;19920;-46
2022/10/18 03:57:02;;;;;;;;;;;;;;;;;;2098099;28;19963;-44
2022/10/18 03:58:03;;;;;;;;;;;;;;;;;;2098363;28;20282;-45
2022/10/18 03:59:04;;;;;;;;;;;;;;;;;;2101733;28;20347;-45
2022/10/18 04:00:04;;;;;;;;;;;;;;;;;;2106520;28;19924;-45
2022/10/18 04:01:06;;;;;;;;;;;;;;;;;;2106562;28;19920;-44
2022/10/18 04:02:06;;;;;;;;;;;;;;;;;;2106460;28;19920;-45
2022/10/18 04:03:07;;;;;;;;;;;;;;;;;;2106632;28;20277;-45
2022/10/18 04:04:08;;;;;;;;;;;;;;;;;;2106553;28;19943;-45
2022/10/18 04:05:09;;;;;;;;;;;;;;;;;;2106505;28;20004;-44
2022/10/18 04:06:09;;;;;;;;;;;;;;;;;;2106480;28;19920;-45
2022/10/18 04:07:10;;;;;;;;;;;;;;;;;;2106424;28;19920;-45
2022/10/18 04:08:11;;;;;;;;;;;;;;;;;;2106579;28;19920;-44
2022/10/18 04:09:12;;;;;;;;;;;;;;;;;;2106441;28;20023;-45
2022/10/18 04:10:13;;;;;;;;;;;;;;;;;;2101646;28;20002;-44
2022/10/18 04:11:14;;;;;;;;;;;;;;;;;;2098059;28;19979;-45
2022/10/18 04:12:14;;;;;;;;;;;;;;;;;;2098178;28;19924;-45
2022/10/18 04:13:15;;;;;;;;;;;;;;;;;;2098104;28;20284;-45
2022/10/18 04:14:16;;;;;;;;;;;;;;;;;;2098016;28;19978;-45
2022/10/18 04:15:17;;;;;;;;;;;;;;;;;;2098133;28;19965;-45
2022/10/18 04:16:18;;;;;;;;;;;;;;;;;;2098184;28;19926;-45
2022/10/18 04:17:19;;;;;;;;;;;;;;;;;;2098054;28;19971;-44
2022/10/18 04:18:19;;;;;;;;;;;;;;;;;;2098115;28;20019;-44
2022/10/18 04:19:20;;;;;;;;;;;;;;;;;;2098227;28;19921;-44
2022/10/18 04:20:21;;;;;;;;;;;;;;;;;;2098001;28;19928;-44
2022/10/18 04:21:22;;;;;;;;;;;;;;;;;;2098070;28;19978;-44
2022/10/18 04:22:22;;;;;;;;;;;;;;;;;;2098097;28;19924;-44
2022/10/18 04:23:23;;;;;;;;;;;;;;;;;;2098089;28;20345;-45
2022/10/18 04:24:24;;;;;;;;;;;;;;;;;;2098013;28;20015;-44
2022/10/18 04:25:25;;;;;;;;;;;;;;;;;;2098053;28;19927;-45
2022/10/18 04:26:26;;;;;;;;;;;;;;;;;;2097981;28;20373;-45
2022/10/18 04:27:27;;;;;;;;;;;;;;;;;;2098084;28;19926;-44
2022/10/18 04:28:27;;;;;;;;;;;;;;;;;;2098049;28;19927;-44
2022/10/18 04:29:28;;;;;;;;;;;;;;;;;;2097939;28;19924;-44
2022/10/18 04:30:29;;;;;;;;;;;;;;;;;;2098032;28;20023;-44
2022/10/18 04:31:30;;;;;;;;;;;;;;;;;;2097960;28;20019;-45
2022/10/18 04:32:31;;;;;;;;;;;;;;;;;;2097575;28;19924;-44
2022/10/18 04:33:32;;;;;;;;;;;;;;;;;;2097964;28;19920;-45
2022/10/18 04:34:32;;;;;;;;;;;;;;;;;;2098109;28;20374;-45
2022/10/18 04:35:33;;;;;;;;;;;;;;;;;;2097936;28;20365;-45
2022/10/18 04:36:34;;;;;;;;;;;;;;;;;;2098042;28;20007;-45
2022/10/18 04:37:35;;;;;;;;;;;;;;;;;;2098058;28;20246;-44
2022/10/18 04:38:36;;;;;;;;;;;;;;;;;;2097945;28;19942;-44
2022/10/18 04:39:37;;;;;;;;;;;;;;;;;;2098066;28;19927;-45
2022/10/18 04:40:37;;;;;;;;;;;;;;;;;;2097936;28;19921;-44
2022/10/18 04:41:38;;;;;;;;;;;;;;;;;;2097884;28;19964;-45
2022/10/18 04:42:39;;;;;;;;;;;;;;;;;;2097852;28;20289;-45
2022/10/18 04:43:40;;;;;;;;;;;;;;;;;;2098082;28;19926;-45
2022/10/18 04:44:41;;;;;;;;;;;;;;;;;;2097982;28;19927;-45
2022/10/18 04:45:42;;;;;;;;;;;;;;;;;;2098037;28;19990;-45
2022/10/18 04:46:42;;;;;;;;;;;;;;;;;;2097912;28;19967;-45
2022/10/18 04:47:43;;;;;;;;;;;;;;;;;;2097896;28;19975;-45
2022/10/18 04:48:44;;;;;;;;;;;;;;;;;;2097963;28;20361;-45
2022/10/18 04:49:45;;;;;;;;;;;;;;;;;;2097834;28;19974;-45
2022/10/18 04:50:45;;;;;;;;;;;;;;;;;;2098015;28;20380;-44
2022/10/18 04:51:46;;;;;;;;;;;;;;;;;;2097882;28;20391;-45
2022/10/18 04:52:47;;;;;;;;;;;;;;;;;;2097980;28;19973;-45
2022/10/18 04:53:48;;;;;;;;;;;;;;;;;;2097887;28;19947;-45
2022/10/18 04:54:49;;;;;;;;;;;;;;;;;;2097830;28;19924;-45
2022/10/18 04:55:50;;;;;;;;;;;;;;;;;;2105814;28;19977;-45
2022/10/18 04:56:50;;;;;;;;;;;;;;;;;;2106160;28;19924;-45
2022/10/18 04:57:51;;;;;;;;;;;;;;;;;;2106179;28;19927;-45
2022/10/18 04:58:52;;;;;;;;;;;;;;;;;;2106208;28;20026;-45
2022/10/18 04:59:53;;;;;;;;;;;;;;;;;;2106186;28;20509;-45
2022/10/18 05:00:54;;;;;;;;;;;;;;;;;;2106193;28;19924;-44
2022/10/18 05:01:54;;;;;;;;;;;;;;;;;;2106223;28;19920;-46
2022/10/18 05:02:55;;;;;;;;;;;;;;;;;;2106131;28;19920;-45
2022/10/18 05:03:56;;;;;;;;;;;;;;;;;;2106206;28;19927;-44
2022/10/18 05:04:57;;;;;;;;;;;;;;;;;;2106138;28;19920;-45
2022/10/18 05:05:58;;;;;;;;;;;;;;;;;;2106317;28;20094;-45
2022/10/18 05:07:05;;;;;;;;;;;;;;;;;;2106252;28;19931;-44
2022/10/18 05:08:06;;;;;;;;;;;;;;;;;;2106264;28;19920;-45
2022/10/18 05:09:07;;;;;;;;;;;;;;;;;;2106098;28;19924;-45
2022/10/18 05:10:07;;;;;;;;;;;;;;;;;;2101932;28;20381;-45
2022/10/18 05:11:08;;;;;;;;;;;;;;;;;;2097799;28;19921;-45
2022/10/18 05:12:10;;;;;;;;;;;;;;;;;;2097694;28;20395;-45
2022/10/18 05:13:11;;;;;;;;;;;;;;;;;;2097774;28;19927;-45
2022/10/18 05:14:12;;;;;;;;;;;;;;;;;;2097806;28;19969;-44
2022/10/18 05:15:12;;;;;;;;;;;;;;;;;;2097914;28;19931;-45
2022/10/18 05:16:14;;;;;;;;;;;;;;;;;;2097809;28;19920;-45
2022/10/18 05:17:15;;;;;;;;;;;;;;;;;;2097706;28;19924;-45
2022/10/18 05:18:16;;;;;;;;;;;;;;;;;;2097823;28;19921;-45
2022/10/18 05:19:17;;;;;;;;;;;;;;;;;;2097911;28;20369;-45
2022/10/18 05:20:18;;;;;;;;;;;;;;;;;;2097710;28;20028;-45
2022/10/18 05:21:18;;;;;;;;;;;;;;;;;;2097898;28;19921;-44
2022/10/18 05:22:19;;;;;;;;;;;;;;;;;;2097803;28;20011;-44
2022/10/18 05:23:20;;;;;;;;;;;;;;;;;;2097651;28;19920;-45
2022/10/18 05:24:21;;;;;;;;;;;;;;;;;;2097731;28;19966;-45
2022/10/18 05:25:24;;;;;;;;;;;;;;;;;;2097747;28;19921;-45
2022/10/18 05:26:25;;;;;;;;;;;;;;;;;;2097866;28;19967;-45
2022/10/18 05:27:25;;;;;;;;;;;;;;;;;;2097589;28;19920;-45
2022/10/18 05:28:26;;;;;;;;;;;;;;;;;;2097674;28;19959;-45
2022/10/18 05:29:40;;;;;;;;;;;;;;;;;;2097782;28;19927;-44
2022/10/18 05:30:41;;;;;;;;;;;;;;;;;;2097709;28;20365;-45
2022/10/18 05:31:42;;;;;;;;;;;;;;;;;;2097685;28;19927;-44
2022/10/18 05:32:42;;;;;;;;;;;;;;;;;;2097643;28;20344;-45
2022/10/18 05:33:43;;;;;;;;;;;;;;;;;;2097933;28;20417;-44
2022/10/18 05:34:44;;;;;;;;;;;;;;;;;;2097629;28;19928;-45
2022/10/18 05:35:45;;;;;;;;;;;;;;;;;;2097779;28;20276;-45
2022/10/18 05:36:45;;;;;;;;;;;;;;;;;;2097625;28;19970;-44
2022/10/18 05:37:46;;;;;;;;;;;;;;;;;;2097773;28;19920;-44
2022/10/18 05:38:47;;;;;;;;;;;;;;;;;;2097567;28;19943;-46
2022/10/18 05:39:48;;;;;;;;;;;;;;;;;;2097784;28;19924;-45
2022/10/18 05:40:49;;;;;;;;;;;;;;;;;;2097713;28;19924;-45
2022/10/18 05:41:50;;;;;;;;;;;;;;;;;;2097629;28;19925;-45
2022/10/18 05:42:50;;;;;;;;;;;;;;;;;;2097508;28;19928;-45
2022/10/18 05:43:51;;;;;;;;;;;;;;;;;;2097754;28;19927;-45
2022/10/18 05:44:52;;;;;;;;;;;;;;;;;;2098160;28;19920;-45
2022/10/18 05:45:53;;;;;;;;;;;;;;;;;;2099017;28;20475;-45
2022/10/18 05:46:54;;;;;;;;;;;;;;;;;;2098951;28;19920;-46
2022/10/18 05:47:55;;;;;;;;;;;;;;;;;;2099002;28;19920;-45
2022/10/18 05:48:55;;;;;;;;;;;;;;;;;;2099004;28;20024;-45
2022/10/18 05:49:56;;;;;;;;;;;;;;;;;;2099052;28;20047;-45
2022/10/18 05:50:57;;;;;;;;;;;;;;;;;;2099029;28;20373;-45
2022/10/18 05:51:58;;;;;;;;;;;;;;;;;;2105973;28;19965;-45
2022/10/18 05:52:59;;;;;;;;;;;;;;;;;;2107382;28;20028;-44
2022/10/18 05:54:12;;;;;;;;;;;;;;;;;;2107470;28;20007;-45
2022/10/18 05:55:13;;;;;;;;;;;;;;;;;;2107388;28;19930;-45
2022/10/18 05:56:14;;;;;;;;;;;;;;;;;;2107467;28;19920;-45
2022/10/18 05:57:14;;;;;;;;;;;;;;;;;;2107263;28;19970;-45
2022/10/18 05:58:15;;;;;;;;;;;;;;;;;;2107326;28;19927;-45
2022/10/18 05:59:16;;;;;;;;;;;;;;;;;;2107289;28;20025;-46
2022/10/18 06:00:17;;;;;;;;;;;;;;;;;;2107339;28;19974;-45
2022/10/18 06:01:18;;;;;;;;;;;;;;;;;;2107318;28;20288;-46
2022/10/18 06:02:19;;;;;;;;;;;;;;;;;;2107312;28;19963;-45
2022/10/18 06:03:20;;;;;;;;;;;;;;;;;;2107257;28;19927;-45
2022/10/18 06:04:20;;;;;;;;;;;;;;;;;;2107161;28;20010;-44
2022/10/18 06:05:21;;;;;;;;;;;;;;;;;;2107256;28;19920;-44
2022/10/18 06:06:22;;;;;;;;;;;;;;;;;;2107330;28;19971;-45
2022/10/18 06:07:23;;;;;;;;;;;;;;;;;;2107201;28;19971;-45
2022/10/18 06:08:24;;;;;;;;;;;;;;;;;;2107260;28;20380;-46
2022/10/18 06:09:25;;;;;;;;;;;;;;;;;;2107402;28;19920;-45
2022/10/18 06:10:25;;;;;;;;;;;;;;;;;;2107100;28;19920;-46
2022/10/18 06:11:26;;;;;;;;;;;;;;;;;;2107371;28;19927;-45
2022/10/18 06:12:27;;;;;;;;;;;;;;;;;;2107130;28;19927;-45
2022/10/18 06:13:28;;;;;;;;;;;;;;;;;;2107240;28;20034;-45
2022/10/18 06:14:31;;;;;;;;;;;;;;;;;;2107306;28;19926;-45
2022/10/18 06:15:32;;;;;;;;;;;;;;;;;;2107247;28;20305;-46
2022/10/18 06:16:33;;;;;;;;;;;;;;;;;;2107234;28;19931;-46
2022/10/18 06:17:33;;;;;;;;;;;;;;;;;;2107295;28;20273;-46
2022/10/18 06:18:34;;;;;;;;;;;;;;;;;;2107315;28;19920;-45
2022/10/18 06:19:35;;;;;;;;;;;;;;;;;;2107118;28;19927;-46
2022/10/18 06:20:36;;;;;;;;;;;;;;;;;;2107319;28;19920;-45
2022/10/18 06:21:37;;;;;;;;;;;;;;;;;;2107107;28;19971;-45
2022/10/18 06:22:38;;;;;;;;;;;;;;;;;;2107280;28;20053;-45
2022/10/18 06:23:39;;;;;;;;;;;;;;;;;;2107155;28;19982;-46
2022/10/18 06:24:39;;;;;;;;;;;;;;;;;;2107281;28;19920;-46
2022/10/18 06:25:40;;;;;;;;;;;;;;;;;;2107224;28;19924;-46
2022/10/18 06:26:41;;;;;;;;;;;;;;;;;;2107184;28;19920;-45
2022/10/18 06:27:42;;;;;;;;;;;;;;;;;;2107120;28;20035;-45
2022/10/18 06:28:43;;;;;;;;;;;;;;;;;;2107122;28;19971;-45
2022/10/18 06:29:44;;;;;;;;;;;;;;;;;;2107082;28;19920;-45
2022/10/18 06:30:44;;;;;;;;;;;;;;;;;;2107139;28;19920;-47
2022/10/18 06:31:45;;;;;;;;;;;;;;;;;;2107190;28;19963;-45
2022/10/18 06:32:46;;;;;;;;;;;;;;;;;;2107076;28;19927;-45
2022/10/18 06:33:47;;;;;;;;;;;;;;;;;;2107107;28;19920;-46
2022/10/18 06:34:48;;;;;;;;;;;;;;;;;;2107019;28;19926;-46
2022/10/18 06:35:49;;;;;;;;;;;;;;;;;;2107198;28;19931;-45
2022/10/18 06:36:50;;;;;;;;;;;;;;;;;;2107125;28;20023;-45
2022/10/18 06:37:53;;;;;;;;;;;;;;;;;;2107194;28;20011;-47
2022/10/18 06:38:55;;;;;;;;;;;;;;;;;;2107174;28;20361;-47
2022/10/18 06:39:56;;;;;;;;;;;;;;;;;;2107019;28;19920;-46
2022/10/18 06:40:57;;;;;;;;;;;;;;;;;;2107066;28;19931;-46
2022/10/18 06:41:57;;;;;;;;;;;;;;;;;;2106930;28;19967;-45
2022/10/18 06:43:00;;;;;;;;;;;;;;;;;;2106970;28;19965;-45
2022/10/18 06:44:12;;;;;;;;;;;;;;;;;;2107062;28;19927;-45
2022/10/18 06:45:14;;;;;;;;;;;;;;;;;;2107057;28;19924;-46
2022/10/18 06:46:15;;;;;;;;;;;;;;;;;;2107100;28;19923;-46
2022/10/18 06:47:16;;;;;;;;;;;;;;;;;;2106802;28;19920;-45
2022/10/18 06:48:17;;;;;;;;;;;;;;;;;;2106867;28;20065;-46
2022/10/18 06:49:18;;;;;;;;;;;;;;;;;;2107022;28;19920;-46
2022/10/18 06:50:19;;;;;;;;;;;;;;;;;;2107116;28;19963;-46
2022/10/18 06:51:20;;;;;;;;;;;;;;;;;;2107067;28;20284;-45
2022/10/18 06:52:24;;;;;;;;;;;;;;;;;;2106910;28;19920;-46
2022/10/18 06:53:25;;;;;;;;;;;;;;;;;;2107120;28;20412;-46
2022/10/18 06:54:26;;;;;;;;;;;;;;;;;;2106969;28;19923;-45
2022/10/18 06:55:27;;;;;;;;;;;;;;;;;;2106653;28;19920;-45
2022/10/18 06:56:27;;;;;;;;;;;;;;;;;;2107000;28;19920;-45